createdAt,value
2022-12-28T00:06:51.234Z,78.75
2022-12-28T00:16:54.165Z,78.98
2022-12-28T00:26:58.608Z,79.00
2022-12-28T00:37:08.385Z,78.86
2022-12-28T00:47:16.710Z,78.87
2022-12-28T00:57:19.563Z,79.01
2022-12-28T01:07:23.894Z,78.96
2022-12-28T01:17:26.867Z,78.78
2022-12-28T01:27:31.714Z,78.86
2022-12-28T01:37:35.455Z,78.69
2022-12-28T01:47:41.161Z,78.69
2022-12-28T01:57:48.196Z,78.80
2022-12-28T02:07:59.011Z,78.84
2022-12-28T02:18:03.876Z,79.11
2022-12-28T02:28:25.272Z,79.18
2022-12-28T02:38:37.858Z,78.82
2022-12-28T02:49:00.210Z,78.43
2022-12-28T02:59:16.326Z,78.51
2022-12-28T03:09:30.227Z,78.28
2022-12-28T03:19:57.515Z,78.31
2022-12-28T03:30:23.418Z,78.15
2022-12-28T03:40:40.735Z,78.22
2022-12-28T03:50:46.950Z,78.08
2022-12-28T04:00:51.265Z,78.49
2022-12-28T04:10:55.623Z,78.50
2022-12-28T04:21:00.139Z,79.08
2022-12-28T04:31:05.183Z,78.96
2022-12-28T04:41:10.528Z,79.23
2022-12-28T04:51:19.321Z,79.00
2022-12-28T05:01:24.090Z,79.17
2022-12-28T05:11:28.665Z,79.36
2022-12-28T05:21:33.648Z,79.70
2022-12-28T05:31:37.206Z,79.90
2022-12-28T05:41:43.056Z,80.09
2022-12-28T05:51:50.088Z,79.79
2022-12-28T06:01:54.931Z,80.46
2022-12-28T06:11:58.498Z,80.49
2022-12-28T06:22:02.968Z,80.60
2022-12-28T06:32:06.490Z,80.73
2022-12-28T06:42:11.362Z,81.00
2022-12-28T06:52:14.713Z,80.64
2022-12-28T07:02:20.135Z,80.73
2022-12-28T07:12:23.791Z,80.06
2022-12-28T07:22:28.570Z,80.04
2022-12-28T07:32:31.912Z,80.25
2022-12-28T07:42:36.752Z,79.62
2022-12-28T07:52:40.773Z,78.92
2022-12-28T08:02:45.651Z,79.33
2022-12-28T08:12:49.477Z,79.11
2022-12-28T08:22:54.531Z,79.33
2022-12-28T08:32:57.470Z,79.53
2022-12-28T08:43:03.797Z,79.71
2022-12-28T08:53:11.681Z,79.22
2022-12-28T09:03:16.256Z,79.61
2022-12-28T09:13:19.802Z,79.40
2022-12-28T09:23:24.486Z,79.57
2022-12-28T09:34:23.390Z,79.92
2022-12-28T09:44:28.971Z,80.47
2022-12-28T09:54:31.956Z,80.73
2022-12-28T10:04:38.097Z,80.76
2022-12-28T10:14:43.184Z,80.62
2022-12-28T10:24:48.582Z,80.57
2022-12-28T10:34:57.052Z,80.52
2022-12-28T10:45:07.009Z,80.38
2022-12-28T10:55:29.300Z,80.43
2022-12-28T11:05:33.691Z,80.51
2022-12-28T11:15:37.010Z,80.25
2022-12-28T11:25:42.062Z,80.33
2022-12-28T11:35:45.773Z,80.43
2022-12-28T11:45:54.090Z,80.61
2022-12-28T11:56:09.239Z,81.05
2022-12-28T12:06:13.606Z,81.27
2022-12-28T12:16:22.917Z,81.53
2022-12-28T12:26:36.321Z,81.90
2022-12-28T12:37:02.633Z,82.41
2022-12-28T12:47:41.797Z,82.32
2022-12-28T12:57:58.209Z,82.60
2022-12-28T13:08:02.296Z,82.90
2022-12-28T13:28:48.127Z,82.51
2022-12-28T13:39:04.730Z,82.86
2022-12-28T13:49:08.314Z,82.72
2022-12-28T13:59:16.470Z,82.76
2022-12-28T14:09:21.471Z,83.04
2022-12-28T14:19:25.873Z,82.67
2022-12-28T14:29:31.469Z,82.97
2022-12-28T14:39:40.513Z,83.38
2022-12-28T14:49:44.429Z,83.47
2022-12-28T14:59:56.255Z,83.83
2022-12-28T15:09:59.373Z,83.97
2022-12-28T15:20:04.139Z,83.88
2022-12-28T15:30:09.931Z,84.28
2022-12-28T15:40:17.671Z,83.89
2022-12-28T15:50:20.568Z,83.97
2022-12-28T16:00:25.034Z,84.20
2022-12-28T16:10:28.010Z,84.23
2022-12-28T16:20:33.469Z,84.05
2022-12-28T16:30:48.656Z,84.38
2022-12-28T16:40:53.056Z,84.35
2022-12-28T16:50:58.605Z,84.35
2022-12-28T17:01:08.305Z,84.72
2022-12-28T17:11:12.070Z,84.86
2022-12-28T17:21:16.528Z,84.80
2022-12-28T17:31:21.260Z,84.89
2022-12-28T17:41:27.697Z,85.05
2022-12-28T17:51:31.410Z,84.83
2022-12-28T18:01:35.876Z,84.66
2022-12-28T18:11:38.970Z,84.80
2022-12-28T18:21:43.693Z,84.75
2022-12-28T18:31:47.599Z,84.67
2022-12-28T18:41:51.909Z,84.61
2022-12-28T18:51:54.870Z,84.93
2022-12-28T19:02:09.151Z,84.95
2022-12-28T19:12:14.813Z,84.82
2022-12-28T19:22:19.194Z,84.81
2022-12-28T19:32:22.151Z,84.80
2022-12-28T19:42:27.208Z,84.67
2022-12-28T19:52:30.702Z,84.74
2022-12-28T20:02:35.980Z,84.55
2022-12-28T20:12:38.923Z,84.36
2022-12-28T20:22:43.305Z,84.18
2022-12-28T20:32:46.258Z,84.04
2022-12-28T20:43:09.089Z,83.69
2022-12-28T20:53:11.696Z,83.87
2022-12-28T21:03:16.052Z,83.88
2022-12-28T21:13:18.984Z,83.90
2022-12-28T21:23:23.451Z,83.83
2022-12-28T21:33:26.377Z,83.90
2022-12-28T21:43:31.998Z,83.87
2022-12-28T21:53:34.971Z,83.98
2022-12-28T22:03:57.744Z,83.87
2022-12-28T22:14:02.209Z,83.75
2022-12-28T22:24:07.699Z,83.79
2022-12-28T22:34:10.588Z,83.99
2022-12-28T22:44:14.940Z,83.98
2022-12-28T22:54:17.700Z,84.18
2022-12-28T23:04:22.569Z,84.33
2022-12-28T23:14:45.889Z,84.20
2022-12-28T23:25:08.869Z,84.13
2022-12-28T23:35:12.036Z,84.13
2022-12-28T23:45:18.504Z,84.20
2022-12-28T23:55:21.339Z,84.04
